Marcos Correia

Recruteur - Atlético Mineiro
24 Sept 2028
Dimanche
Processus

Personnalité

Adaptabilité (12) Ambition (12) Controverse (18) Loyauté (1) Pression (8) Professionnalisme (6) Sportivité (3) Tempérament (9)

Profil

Style d'entraînement Démocratique
Diplôme Continental Pro
Détermination 11
Gestion des joueurs 8
Motivation 10
Discipline 14
Satisfaction professionnelle
100%
Fatigue
0%
Rôle Recruteur
Salaire 55.8K p/s
Contrat 14.03.2029

Performance

Comportement Bon
Efficacité de l'entraînement
50%
Développement des joueurs
65%
Prévention des blessures
60%
Mise en place tactique
60%

Événements récents

A participé à une réunion de recrutement maintenant
A participé à une réunion de recrutement 7j
A recommandé une cible de transfert 7j
A recommandé une cible de transfert 7j
A participé à une réunion de recrutement 14j
A recommandé une cible de transfert 14j
A recommandé une cible de transfert 14j
A recommandé une cible de transfert 21j

Suivi en cours

117
Joueur Club Statut Capacité Confiance Observé Dernière observation Dernier vote
Marco Moreno Bahia Perdu 122 / 131 83% 1 10.07.2028 -
Vanderlan Bragantino Perdu 128 / 115 83% 1 19.06.2028 -
Stanley Mills Crewe Alexandra Actif 134 / 118 40% 1 19.06.2028 -
Bafodé Diakité Plymouth Argyle Actif 144 / 145 40% 1 31.05.2028 -
Neco Williams Wrexham Actif 147 / 152 40% 1 31.05.2028 -
André Wolverhampton Actif 160 / 142 40% 1 31.05.2028 -
Kahiser Lenis Ceará Actif 120 / 120 30% 1 / 1m 07.07.2027 -
Renato Kayser Vitória Actif 122 / 124 79% 1 02.06.2027 Approuver
Moisés Caicedo Chelsea Actif 173 / 154 40% 1 31.05.2027 -
Dennis Cirkin Queens Park Rangers Actif 124 / 140 40% 1 31.05.2027 -
Elia Caprile Cagliari Actif 153 / 133 40% 7 30.05.2027 -
Giacomo Raspadori Atalanta Actif 146 / 146 40% 3 27.05.2027 -
Emanuel Emegha Chelsea Actif 143 / 137 40% 1 27.05.2027 -
Joe Gelhardt Hull City Actif 133 / 136 40% 6 26.05.2027 -
James Trafford Leeds United Actif 143 / 156 40% 5 25.05.2027 -
Thiago Brentford Actif 147 / 159 40% 1 23.05.2027 -
Rodrigo Muniz Fulham Actif 141 / 151 40% 1 23.05.2027 -
Alejandro Rodríguez Melgar Actif 127 / 131 40% 1 22.05.2027 -
Jonas Oeste Actif 77 / 82 30% 1 / 1m 19.05.2027 -
Gustavo America Mineiro Actif 128 / 128 42% 1 / 1m 19.05.2027 -
Mads Hermansen West Ham United Actif 136 / 155 40% 4 18.05.2027 -
Zion Suzuki Aston Villa Actif 150 / 154 40% 5 17.05.2027 -
Heorhii Yermakov Metalist Actif 117 / 123 40% 3 12.05.2027 -
Deniz Ertaş Konyaspor Actif 129 / 130 40% 5 11.05.2027 -
Oufa Shobeir MC Alger Actif 131 / 122 40% 2 11.05.2027 -
Oliver Dovin Coventry City Actif 137 / 135 40% 1 11.05.2027 -
Nicolas Jackson Aston Villa Actif 149 / 152 40% 1 09.05.2027 -
Aune Heggebø West Bromwich Albion Actif 131 / 132 40% 5 07.05.2027 -
Ilyas Ansah Hull City Actif 132 / 139 40% 6 07.05.2027 -
Georginio Rutter Brighton Actif 144 / 159 40% 1 06.05.2027 -
Giorgos Koutsias Famalicao Actif 115 / 135 40% 3 30.04.2027 -
Anthony Patterson Wrexham Actif 130 / 144 40% 2 28.04.2027 -
Sam Greenwood Bristol City Actif 131 / 129 40% 2 27.04.2027 -
Mile Svilar AS Roma Actif 165 / 163 40% 2 27.04.2027 -
Joseph Leclercq Tottenham Actif 159 / 165 40% 1 27.04.2027 -
Malik Mothersille Stockport County Actif 118 / 123 40% 2 24.04.2027 -
Josh Keeley Luton Town Actif 126 / 143 40% 1 21.04.2027 -
Andreas Jungdal Westerlo Actif 118 / 131 40% 3 19.04.2027 -
Ivor Pandur Hull City Actif 123 / 110 40% 1 17.04.2027 -
Josh Coburn Millwall Actif 117 / 125 40% 1 17.04.2027 -
Wandile Duba ASO Chlef Actif 109 / 109 40% 2 14.04.2027 -
Lorenzo Colombo Genoa Actif 137 / 142 40% 2 11.04.2027 -
Dale Taylor Blackpool Actif 117 / 107 40% 1 11.04.2027 -
Yousef Salech Cardiff City Actif 129 / 129 40% 2 06.04.2027 -
Andrea Pinamonti Lazio Actif 142 / 146 40% 1 29.03.2027 -
Sorriso Famalicao Actif 137 / 140 40% 5 27.03.2027 -
Gustavo Silva Vitoria Guimaraes Actif 132 / 123 40% 8 26.03.2027 -
Lucas Duarte Felgueiras Actif 100 / 111 40% 3 26.03.2027 -
Korede Osundina Casa Pia Actif 118 / 109 40% 1 25.03.2027 -
Martín Tejón Maritimo Actif 117 / 115 40% 1 23.03.2027 -
Cezary Miszta Rio Ave Actif 132 / 131 40% 2 19.03.2027 -
Grégoire Coudert Burnley Actif 131 / 123 40% 1 18.03.2027 -
Figueiredo Alverca Actif 121 / 113 40% 4 13.03.2027 -
Tamble Monteiro Rio Ave Actif 116 / 126 40% 3 13.03.2027 -
Luccas Paraízo Leixões Actif 112 / 106 40% 1 13.03.2027 -
Lorent Tolaj Plymouth Argyle Actif 127 / 135 40% 1 12.03.2027 -
Raúl Rangel Braga Actif 136 / 149 40% 2 09.03.2027 -
Lukas Jensen Millwall Actif 122 / 104 40% 1 06.03.2027 -
Alfonso Trezza Arouca Actif 129 / 120 40% 3 04.03.2027 -
Tyrese Campbell Sheffield United Actif 128 / 121 40% 2 04.03.2027 -
Vinícius Lopes Santa Clara Actif 116 / 115 40% 3 23.02.2027 -
Yanis Begraoui Estoril Praia Actif 131 / 124 40% 4 21.02.2027 -
Pau Víctor Braga Actif 145 / 126 40% 2 21.02.2027 -
Jorge Aguirre Torreense Actif 103 / 87 40% 2 20.02.2027 -
Mohammad Hosseini Malavan Actif 123 / 132 40% 2 20.02.2027 -
Dawda Camara Alverca Actif 122 / 126 40% 1 19.02.2027 -
Henrique Araújo Casa Pia Actif 123 / 122 40% 5 18.02.2027 -
Jackson Muleka Konyaspor Actif 136 / 115 40% 1 18.02.2027 -
André Lacximicant Estoril Praia Actif 109 / 116 40% 2 16.02.2027 -
Alireza Yazdani Padideh Actif 126 / 112 40% 1 15.02.2027 -
Lazar Carević Famalicao Actif 137 / 145 40% 1 15.02.2027 -
Sławomir Abramowicz Jagiellonia Actif 122 / 139 40% 1 12.02.2027 -
Fran Vieites Walsall Actif 113 / 114 40% 1 10.02.2027 -
Patrick Sequeira Casa Pia Actif 126 / 127 40% 1 10.02.2027 -
Gabriel Brazão Santos Actif 136 / 123 40% 1 09.02.2027 -
Rafael Navarro Famalicao Actif 122 / 125 40% 1 07.02.2027 -
Ianis Stoica Estrela da Amadora Actif 118 / 128 40% 2 05.02.2027 -
Gabriel Silva Braga Actif 126 / 121 40% 4 04.02.2027 -
Juan Diego Castillo Vitoria Guimaraes Actif 114 / 124 40% 1 02.02.2027 -
José Manuel López Palmeiras Actif 132 / 140 40% 2 15.01.2027 -
Vitinho Internacional Actif 130 / 136 40% 2 13.01.2027 -
Memphis Depay Corinthians Actif 147 / 140 79% 1 14.12.2026 Approuver
Lucas Veríssimo Santos Actif 141 / 127 40% 3 28.11.2026 -
Vitor Carvalho Braga Actif 131 / 132 40% 2 21.11.2026 -
Jacob Greaves Ipswich Town Actif 142 / 131 40% 1 21.11.2026 -
Zé Leite Moreirense Actif 111 / 117 40% 2 19.11.2026 -
Yassin Fortuné Vizela Actif 104 / 121 40% 1 19.11.2026 -
Leon Goretzka Aston Villa Actif 147 / 155 40% 1 16.11.2026 -
Bright Arrey-Mbi Braga Actif 140 / 130 40% 1 13.11.2026 -
Martinelli Fluminense Actif 142 / 150 40% 3 11.11.2026 -
Vitinho Botafogo Actif 131 / 140 40% 1 11.11.2026 -
Pablo Rosario Porto Actif 145 / 127 40% 2 09.11.2026 -
Francisco Moura Porto Actif 143 / 147 40% 1 09.11.2026 -
Léo Ortiz Flamengo Actif 145 / 143 40% 2 07.11.2026 -
Iván Fresneda Sporting CP Actif 131 / 155 40% 2 07.11.2026 -
Alberto Costa Porto Actif 151 / 130 40% 4 05.11.2026 -
Eduardo Quaresma Sporting CP Actif 136 / 143 40% 1 05.11.2026 -
Leandro Barreiro Benfica Actif 136 / 139 40% 2 04.11.2026 -
Alexander Bah Benfica Actif 132 / 153 40% 1 04.11.2026 -
Dara O'Shea Ipswich Town Actif 135 / 125 40% 1 04.11.2026 -
Alexis Cuello San Lorenzo Actif 123 / 132 40% 1 30.10.2026 -
Isidro Pitta Bragantino Actif 128 / 128 40% 1 27.10.2026 -
Enzo Barrenechea Benfica Actif 145 / 148 40% 1 19.10.2026 -
Luciano Juba Bahia Actif 137 / 146 40% 1 16.10.2026 -
Nicolò Tresoldi Club Brugge Actif 127 / 125 40% 1 13.10.2026 -
Alejandro Piedrahita Deportivo Pereira Actif 125 / 127 40% 1 13.10.2026 -
Talles Magno New York City Actif 135 / 122 40% 2 01.10.2026 -
Zeno Debast Sporting CP Actif 142 / 151 40% 1 28.09.2026 -
Danilo Botafogo Actif 133 / 127 40% 1 25.09.2026 -
Nehuén Pérez Porto Actif 148 / 126 40% 1 21.09.2026 -
Dejan Joveljić Seattle Sounders Actif 121 / 121 40% 1 21.09.2026 -
Gustaf Lagerbielke Braga Actif 126 / 147 40% 1 18.09.2026 -
Arthur Flamengo Actif 139 / 148 40% 1 17.09.2026 -
Florentino Luís Ipswich Town Actif 139 / 127 40% 1 17.09.2026 -
Wessam Abou Ali Columbus Crew Actif 125 / 132 40% 1 07.09.2026 -
Pedro Flamengo Actif 136 / 148 40% 1 12.08.2026 -
Gonçalo Guedes Real Sociedad Actif 139 / 158 40% 1 04.08.2026 -